Manor, Delaware
Current Conditions -  °F | °C
As of 4:51 AM on Friday 28 Nov 2014 (Local Time) from KILG Reporting Station
Clear Clear  
Wind Chill: 24°   Ceiling: Unl
Heat Index: 32°   Visibility: 10mi
Dew Point: 22°   Wind: 10mph
Humidity: 66%   Direction: 290°WNW
Pressure: 30.17"   Gusts: NA
Location:  39.6483°N, 75.6041°W
Report Text: KILG 280951Z AUTO 29009KT 10SM CLR 00/M06 A3017 RMK AO2 SLP216 T00001056
Loading
Personal Weather Stations






























Interactive Weather Map New forecast layout! Learn more

10-Day Weather Forecast

Advertisements
Track Severe Weather on mobile